sensor_id;sensor_type;location;lat;lon;timestamp;pressure;altitude;pressure_sealevel;temperature;humidity
75072;BME280;63651;55.728;38.022;2023-02-28T00:00:47;99881.53;;;12.40;28.21
75072;BME280;63651;55.728;38.022;2023-02-28T00:05:48;99875.06;;;12.41;28.25
75072;BME280;63651;55.728;38.022;2023-02-28T00:10:49;99860.38;;;12.48;28.52
75072;BME280;63651;55.728;38.022;2023-02-28T00:16:21;99859.75;;;12.40;27.77
75072;BME280;63651;55.728;38.022;2023-02-28T00:21:20;99862.91;;;12.43;28.20
75072;BME280;63651;55.728;38.022;2023-02-28T00:26:21;99856.41;;;12.38;28.92
75072;BME280;63651;55.728;38.022;2023-02-28T00:31:22;99859.97;;;12.45;28.69
75072;BME280;63651;55.728;38.022;2023-02-28T00:36:23;99848.03;;;12.39;28.36
75072;BME280;63651;55.728;38.022;2023-02-28T00:41:24;99850.13;;;12.37;28.47
75072;BME280;63651;55.728;38.022;2023-02-28T00:46:26;99826.44;;;12.38;28.21
75072;BME280;63651;55.728;38.022;2023-02-28T00:51:27;99825.59;;;12.37;28.48
75072;BME280;63651;55.728;38.022;2023-02-28T00:56:28;99814.28;;;12.40;28.23
75072;BME280;63651;55.728;38.022;2023-02-28T01:01:29;99806.94;;;12.41;28.40
75072;BME280;63651;55.728;38.022;2023-02-28T01:06:30;99791.22;;;12.36;28.34
75072;BME280;63651;55.728;38.022;2023-02-28T01:11:33;99791.66;;;12.40;28.41
75072;BME280;63651;55.728;38.022;2023-02-28T01:16:34;99788.91;;;12.40;28.32
75072;BME280;63651;55.728;38.022;2023-02-28T01:21:35;99780.34;;;12.30;28.36
75072;BME280;63651;55.728;38.022;2023-02-28T01:26:37;99768.59;;;12.42;28.27
75072;BME280;63651;55.728;38.022;2023-02-28T01:31:38;99755.81;;;12.36;28.38
75072;BME280;63651;55.728;38.022;2023-02-28T01:36:39;99752.91;;;12.31;28.49
75072;BME280;63651;55.728;38.022;2023-02-28T01:41:40;99746.78;;;12.42;28.21
75072;BME280;63651;55.728;38.022;2023-02-28T01:46:41;99725.03;;;12.36;28.23
75072;BME280;63651;55.728;38.022;2023-02-28T01:51:54;99707.84;;;12.35;28.43
75072;BME280;63651;55.728;38.022;2023-02-28T01:57:05;99710.34;;;12.43;28.12
75072;BME280;63651;55.728;38.022;2023-02-28T02:02:08;99699.91;;;12.27;27.97
75072;BME280;63651;55.728;38.022;2023-02-28T02:07:09;99703.22;;;12.36;28.08
75072;BME280;63651;55.728;38.022;2023-02-28T02:17:56;99684.59;;;12.33;28.38
75072;BME280;63651;55.728;38.022;2023-02-28T02:23:25;99688.97;;;12.40;28.09
75072;BME280;63651;55.728;38.022;2023-02-28T02:28:53;99681.25;;;12.31;28.02
75072;BME280;63651;55.728;38.022;2023-02-28T02:35:12;99656.34;;;12.21;28.16
75072;BME280;63651;55.728;38.022;2023-02-28T02:39:54;99665.72;;;12.31;28.21
75072;BME280;63651;55.728;38.022;2023-02-28T02:45:05;99659.66;;;12.29;27.97
75072;BME280;63651;55.728;38.022;2023-02-28T02:50:12;99642.31;;;12.17;27.94
75072;BME280;63651;55.728;38.022;2023-02-28T02:55:15;99646.06;;;12.23;28.36
75072;BME280;63651;55.728;38.022;2023-02-28T03:00:22;99629.72;;;12.23;28.21
75072;BME280;63651;55.728;38.022;2023-02-28T03:05:28;99628.88;;;12.22;27.94
75072;BME280;63651;55.728;38.022;2023-02-28T03:10:33;99634.13;;;12.24;28.08
75072;BME280;63651;55.728;38.022;2023-02-28T03:21:38;99610.63;;;12.29;28.05
75072;BME280;63651;55.728;38.022;2023-02-28T03:26:52;99594.28;;;12.29;28.56
75072;BME280;63651;55.728;38.022;2023-02-28T03:32:10;99578.81;;;12.23;28.01
75072;BME280;63651;55.728;38.022;2023-02-28T03:37:20;99577.56;;;12.26;27.95
75072;BME280;63651;55.728;38.022;2023-02-28T03:42:31;99558.44;;;12.32;27.72
75072;BME280;63651;55.728;38.022;2023-02-28T03:47:41;99555.16;;;12.24;28.28
75072;BME280;63651;55.728;38.022;2023-02-28T03:52:54;99544.22;;;12.30;28.11
75072;BME280;63651;55.728;38.022;2023-02-28T03:58:10;99537.13;;;12.23;28.51
75072;BME280;63651;55.728;38.022;2023-02-28T04:03:13;99535.81;;;12.32;28.71
75072;BME280;63651;55.728;38.022;2023-02-28T04:08:15;99519.94;;;12.29;28.97
75072;BME280;63651;55.728;38.022;2023-02-28T04:13:16;99514.88;;;12.32;29.11
75072;BME280;63651;55.728;38.022;2023-02-28T04:18:17;99506.09;;;12.30;29.44
75072;BME280;63651;55.728;38.022;2023-02-28T04:23:18;99502.72;;;12.35;29.79
75072;BME280;63651;55.728;38.022;2023-02-28T04:28:19;99488.50;;;12.26;30.03
75072;BME280;63651;55.728;38.022;2023-02-28T04:33:20;99490.97;;;12.34;32.32
75072;BME280;63651;55.728;38.022;2023-02-28T04:38:21;99503.50;;;12.42;33.89
75072;BME280;63651;55.728;38.022;2023-02-28T04:43:22;99479.38;;;12.45;33.99
75072;BME280;63651;55.728;38.022;2023-02-28T04:48:24;99469.69;;;12.56;33.79
75072;BME280;63651;55.728;38.022;2023-02-28T04:53:27;99466.50;;;12.59;33.26
75072;BME280;63651;55.728;38.022;2023-02-28T04:58:30;99457.50;;;12.59;32.88
75072;BME280;63651;55.728;38.022;2023-02-28T05:03:31;99434.66;;;12.60;32.66
75072;BME280;63651;55.728;38.022;2023-02-28T05:08:32;99434.38;;;12.68;32.05
75072;BME280;63651;55.728;38.022;2023-02-28T05:13:36;99414.63;;;12.72;31.36
75072;BME280;63651;55.728;38.022;2023-02-28T05:18:37;99393.88;;;12.71;31.09
75072;BME280;63651;55.728;38.022;2023-02-28T05:23:39;99379.59;;;12.76;30.72
75072;BME280;63651;55.728;38.022;2023-02-28T05:28:40;99368.00;;;12.80;30.11
75072;BME280;63651;55.728;38.022;2023-02-28T05:33:41;99344.47;;;12.86;29.75
75072;BME280;63651;55.728;38.022;2023-02-28T05:38:42;99340.69;;;12.87;29.62
75072;BME280;63651;55.728;38.022;2023-02-28T05:43:43;99334.63;;;12.85;29.47
75072;BME280;63651;55.728;38.022;2023-02-28T05:48:46;99313.19;;;12.89;29.07
75072;BME280;63651;55.728;38.022;2023-02-28T05:53:48;99314.63;;;12.91;28.48
75072;BME280;63651;55.728;38.022;2023-02-28T05:58:50;99305.38;;;14.07;30.06
75072;BME280;63651;55.728;38.022;2023-02-28T06:03:51;99289.50;;;14.16;28.28
75072;BME280;63651;55.728;38.022;2023-02-28T06:08:52;99276.88;;;14.03;28.96
75072;BME280;63651;55.728;38.022;2023-02-28T06:13:54;99271.03;;;13.88;28.13
75072;BME280;63651;55.728;38.022;2023-02-28T06:19:01;99246.34;;;13.83;28.04
75072;BME280;63651;55.728;38.022;2023-02-28T06:24:03;99241.72;;;13.95;28.12
75072;BME280;63651;55.728;38.022;2023-02-28T06:29:04;99222.28;;;14.26;27.76
75072;BME280;63651;55.728;38.022;2023-02-28T06:34:06;99211.63;;;14.36;27.19
75072;BME280;63651;55.728;38.022;2023-02-28T06:39:07;99234.63;;;14.29;27.05
75072;BME280;63651;55.728;38.022;2023-02-28T06:44:12;99203.31;;;14.31;26.56
75072;BME280;63651;55.728;38.022;2023-02-28T06:49:14;99207.69;;;14.32;26.70
75072;BME280;63651;55.728;38.022;2023-02-28T06:54:16;99174.31;;;14.30;25.96
75072;BME280;63651;55.728;38.022;2023-02-28T06:59:17;99177.75;;;14.37;26.13
75072;BME280;63651;55.728;38.022;2023-02-28T07:04:18;99152.69;;;14.52;26.89
75072;BME280;63651;55.728;38.022;2023-02-28T07:09:19;99133.06;;;14.55;26.49
75072;BME280;63651;55.728;38.022;2023-02-28T07:14:20;99120.94;;;14.63;27.17
75072;BME280;63651;55.728;38.022;2023-02-28T07:19:22;99115.19;;;14.76;27.62
75072;BME280;63651;55.728;38.022;2023-02-28T07:24:23;99122.56;;;14.76;27.69
75072;BME280;63651;55.728;38.022;2023-02-28T07:29:29;99097.72;;;14.77;26.91
75072;BME280;63651;55.728;38.022;2023-02-28T07:34:30;99094.09;;;14.88;26.97
75072;BME280;63651;55.728;38.022;2023-02-28T07:39:31;99078.22;;;15.02;27.29
75072;BME280;63651;55.728;38.022;2023-02-28T07:44:32;99070.59;;;15.04;27.41
75072;BME280;63651;55.728;38.022;2023-02-28T07:49:35;99057.41;;;15.01;26.75
75072;BME280;63651;55.728;38.022;2023-02-28T07:54:36;99077.66;;;15.17;26.76
75072;BME280;63651;55.728;38.022;2023-02-28T07:59:37;99045.31;;;15.30;26.28
75072;BME280;63651;55.728;38.022;2023-02-28T08:04:38;99071.84;;;15.13;26.24
75072;BME280;63651;55.728;38.022;2023-02-28T08:09:40;99054.09;;;14.99;26.40
75072;BME280;63651;55.728;38.022;2023-02-28T08:14:41;99048.88;;;14.97;26.53
75072;BME280;63651;55.728;38.022;2023-02-28T08:19:45;99025.47;;;14.90;26.22
75072;BME280;63651;55.728;38.022;2023-02-28T08:24:48;99009.50;;;14.98;26.31
75072;BME280;63651;55.728;38.022;2023-02-28T08:29:49;99002.53;;;15.08;26.29
75072;BME280;63651;55.728;38.022;2023-02-28T08:34:51;98989.78;;;15.13;26.17
75072;BME280;63651;55.728;38.022;2023-02-28T08:39:52;98988.28;;;15.22;26.35
75072;BME280;63651;55.728;38.022;2023-02-28T08:44:53;99000.38;;;15.10;25.73
75072;BME280;63651;55.728;38.022;2023-02-28T08:49:54;99018.78;;;14.97;25.20
75072;BME280;63651;55.728;38.022;2023-02-28T08:54:55;99020.94;;;14.95;25.13
75072;BME280;63651;55.728;38.022;2023-02-28T08:59:56;99034.50;;;14.90;25.14
75072;BME280;63651;55.728;38.022;2023-02-28T09:04:58;99001.09;;;14.71;25.48
75072;BME280;63651;55.728;38.022;2023-02-28T09:09:59;98999.94;;;14.67;25.45
75072;BME280;63651;55.728;38.022;2023-02-28T09:15:00;98993.34;;;14.52;26.21
75072;BME280;63651;55.728;38.022;2023-02-28T09:20:01;98972.41;;;14.57;25.72
75072;BME280;63651;55.728;38.022;2023-02-28T09:25:02;98963.72;;;14.60;26.25
75072;BME280;63651;55.728;38.022;2023-02-28T09:30:04;98960.97;;;14.60;26.27
75072;BME280;63651;55.728;38.022;2023-02-28T09:35:05;98969.53;;;14.64;26.52
75072;BME280;63651;55.728;38.022;2023-02-28T09:40:09;98950.78;;;14.56;25.86
75072;BME280;63651;55.728;38.022;2023-02-28T09:45:24;98965.63;;;14.77;25.82
75072;BME280;63651;55.728;38.022;2023-02-28T09:50:41;98952.03;;;14.65;25.32
75072;BME280;63651;55.728;38.022;2023-02-28T09:55:47;98944.09;;;14.63;25.97
75072;BME280;63651;55.728;38.022;2023-02-28T10:01:00;98933.81;;;14.70;25.57
75072;BME280;63651;55.728;38.022;2023-02-28T10:06:20;98904.34;;;14.72;25.03
75072;BME280;63651;55.728;38.022;2023-02-28T10:11:22;98916.09;;;14.73;25.30
75072;BME280;63651;55.728;38.022;2023-02-28T10:16:29;98886.19;;;14.66;24.63
75072;BME280;63651;55.728;38.022;2023-02-28T10:26:48;98880.47;;;14.68;24.91
75072;BME280;63651;55.728;38.022;2023-02-28T10:31:49;98868.72;;;14.51;24.86
75072;BME280;63651;55.728;38.022;2023-02-28T10:36:51;98854.38;;;14.44;25.44
75072;BME280;63651;55.728;38.022;2023-02-28T10:41:52;98851.16;;;14.47;25.46
75072;BME280;63651;55.728;38.022;2023-02-28T10:46:53;98872.09;;;14.29;25.49
75072;BME280;63651;55.728;38.022;2023-02-28T10:51:57;98845.91;;;14.17;25.79
75072;BME280;63651;55.728;38.022;2023-02-28T10:57:28;98841.66;;;14.37;25.32
75072;BME280;63651;55.728;38.022;2023-02-28T11:02:36;98831.03;;;14.24;24.94
75072;BME280;63651;55.728;38.022;2023-02-28T11:07:51;98841.63;;;14.21;25.17
75072;BME280;63651;55.728;38.022;2023-02-28T11:12:55;98845.44;;;14.20;26.36
75072;BME280;63651;55.728;38.022;2023-02-28T11:18:01;98825.78;;;14.34;25.49
75072;BME280;63651;55.728;38.022;2023-02-28T11:23:03;98818.78;;;14.27;25.35
75072;BME280;63651;55.728;38.022;2023-02-28T11:28:32;98804.03;;;14.11;26.05
75072;BME280;63651;55.728;38.022;2023-02-28T11:33:54;98811.91;;;14.24;25.94
75072;BME280;63651;55.728;38.022;2023-02-28T11:38:59;98819.03;;;14.25;26.15
75072;BME280;63651;55.728;38.022;2023-02-28T12:26:46;98776.44;;;14.41;27.23
75072;BME280;63651;55.728;38.022;2023-02-28T12:32:25;98772.53;;;14.37;27.52
75072;BME280;63651;55.728;38.022;2023-02-28T12:37:31;98763.56;;;14.25;27.38
75072;BME280;63651;55.728;38.022;2023-02-28T12:42:56;98764.50;;;14.30;27.60
75072;BME280;63651;55.728;38.022;2023-02-28T12:48:04;98738.06;;;14.19;27.98
75072;BME280;63651;55.728;38.022;2023-02-28T12:58:25;98707.34;;;14.29;27.75
75072;BME280;63651;55.728;38.022;2023-02-28T13:03:41;98700.59;;;14.31;27.77
75072;BME280;63651;55.728;38.022;2023-02-28T13:14:04;98679.31;;;14.17;27.96
75072;BME280;63651;55.728;38.022;2023-02-28T13:19:10;98690.00;;;14.18;28.10
75072;BME280;63651;55.728;38.022;2023-02-28T13:29:43;98681.72;;;14.13;28.24
75072;BME280;63651;55.728;38.022;2023-02-28T13:40:07;98660.13;;;14.12;28.29
75072;BME280;63651;55.728;38.022;2023-02-28T13:45:30;98656.56;;;14.11;28.58
75072;BME280;63651;55.728;38.022;2023-02-28T13:50:38;98636.94;;;14.14;28.82
75072;BME280;63651;55.728;38.022;2023-02-28T14:06:26;98621.66;;;13.96;28.56
75072;BME280;63651;55.728;38.022;2023-02-28T14:11:31;98634.50;;;13.96;28.11
75072;BME280;63651;55.728;38.022;2023-02-28T14:16:37;98651.78;;;14.01;28.60
75072;BME280;63651;55.728;38.022;2023-02-28T14:21:50;98622.09;;;13.88;28.29
75072;BME280;63651;55.728;38.022;2023-02-28T14:27:15;98616.34;;;14.06;28.57
75072;BME280;63651;55.728;38.022;2023-02-28T14:37:47;98619.84;;;13.85;28.77
75072;BME280;63651;55.728;38.022;2023-02-28T14:43:05;98575.03;;;13.81;28.59
75072;BME280;63651;55.728;38.022;2023-02-28T14:48:09;98590.00;;;13.78;29.00
75072;BME280;63651;55.728;38.022;2023-02-28T14:53:17;98574.78;;;13.83;29.32
75072;BME280;63651;55.728;38.022;2023-02-28T14:58:25;98581.06;;;13.83;30.13
75072;BME280;63651;55.728;38.022;2023-02-28T15:03:34;98588.94;;;13.80;30.24
75072;BME280;63651;55.728;38.022;2023-02-28T15:08:35;98578.44;;;13.71;30.46
75072;BME280;63651;55.728;38.022;2023-02-28T15:13:48;98581.13;;;13.88;30.89
75072;BME280;63651;55.728;38.022;2023-02-28T15:18:59;98587.44;;;13.89;30.44
75072;BME280;63651;55.728;38.022;2023-02-28T15:29:16;98563.00;;;13.99;32.30
75072;BME280;63651;55.728;38.022;2023-02-28T15:34:28;98578.59;;;13.82;32.76
75072;BME280;63651;55.728;38.022;2023-02-28T15:39:31;98572.72;;;14.12;32.69
75072;BME280;63651;55.728;38.022;2023-02-28T15:44:42;98549.97;;;13.84;32.46
75072;BME280;63651;55.728;38.022;2023-02-28T15:50:01;98533.06;;;13.87;33.10
75072;BME280;63651;55.728;38.022;2023-02-28T15:55:15;98552.50;;;13.91;34.56
75072;BME280;63651;55.728;38.022;2023-02-28T16:00:24;98554.72;;;13.94;35.23
75072;BME280;63651;55.728;38.022;2023-02-28T16:05:28;98546.47;;;13.89;35.91
75072;BME280;63651;55.728;38.022;2023-02-28T16:10:32;98545.66;;;13.88;35.72
75072;BME280;63651;55.728;38.022;2023-02-28T16:15:38;98528.94;;;13.85;35.78
75072;BME280;63651;55.728;38.022;2023-02-28T16:20:43;98541.34;;;13.92;36.15
75072;BME280;63651;55.728;38.022;2023-02-28T16:25:45;98529.28;;;13.88;35.45
75072;BME280;63651;55.728;38.022;2023-02-28T16:30:47;98532.56;;;13.90;35.99
75072;BME280;63651;55.728;38.022;2023-02-28T16:35:48;98527.03;;;13.85;35.88
75072;BME280;63651;55.728;38.022;2023-02-28T16:40:50;98536.44;;;13.94;35.63
75072;BME280;63651;55.728;38.022;2023-02-28T16:45:58;98523.63;;;13.95;36.09
75072;BME280;63651;55.728;38.022;2023-02-28T16:50:59;98530.47;;;13.97;35.71
75072;BME280;63651;55.728;38.022;2023-02-28T16:56:00;98522.88;;;13.99;36.08
75072;BME280;63651;55.728;38.022;2023-02-28T17:01:03;98504.84;;;13.98;35.89
75072;BME280;63651;55.728;38.022;2023-02-28T17:06:04;98506.47;;;13.99;35.78
75072;BME280;63651;55.728;38.022;2023-02-28T17:11:05;98497.78;;;14.02;35.75
75072;BME280;63651;55.728;38.022;2023-02-28T17:16:26;98489.34;;;14.04;35.74
75072;BME280;63651;55.728;38.022;2023-02-28T17:21:29;98509.53;;;14.03;36.33
75072;BME280;63651;55.728;38.022;2023-02-28T17:26:30;98504.41;;;14.06;35.75
75072;BME280;63651;55.728;38.022;2023-02-28T17:31:31;98503.00;;;14.04;35.58
75072;BME280;63651;55.728;38.022;2023-02-28T17:36:34;98509.34;;;14.09;35.44
75072;BME280;63651;55.728;38.022;2023-02-28T17:41:35;98535.44;;;14.00;34.98
75072;BME280;63651;55.728;38.022;2023-02-28T17:46:36;98549.84;;;13.96;34.93
75072;BME280;63651;55.728;38.022;2023-02-28T17:51:37;98556.72;;;13.98;34.74
75072;BME280;63651;55.728;38.022;2023-02-28T17:56:39;98570.03;;;13.95;35.24
75072;BME280;63651;55.728;38.022;2023-02-28T18:01:40;98569.28;;;13.99;35.40
75072;BME280;63651;55.728;38.022;2023-02-28T18:06:43;98554.47;;;13.95;35.44
75072;BME280;63651;55.728;38.022;2023-02-28T18:11:51;98544.31;;;13.91;35.05
75072;BME280;63651;55.728;38.022;2023-02-28T18:16:54;98555.56;;;13.94;34.50
75072;BME280;63651;55.728;38.022;2023-02-28T18:21:55;98542.91;;;13.88;35.48
75072;BME280;63651;55.728;38.022;2023-02-28T18:26:57;98546.28;;;13.95;36.08
75072;BME280;63651;55.728;38.022;2023-02-28T18:31:58;98579.13;;;14.00;35.27
75072;BME280;63651;55.728;38.022;2023-02-28T18:37:03;98537.13;;;13.85;35.72
75072;BME280;63651;55.728;38.022;2023-02-28T18:42:04;98569.84;;;14.01;35.42
75072;BME280;63651;55.728;38.022;2023-02-28T18:47:05;98574.00;;;14.04;36.03
75072;BME280;63651;55.728;38.022;2023-02-28T18:52:06;98570.69;;;14.02;35.88
75072;BME280;63651;55.728;38.022;2023-02-28T18:57:07;98584.34;;;14.02;35.66
75072;BME280;63651;55.728;38.022;2023-02-28T19:02:09;98602.78;;;14.12;36.33
75072;BME280;63651;55.728;38.022;2023-02-28T19:07:10;98585.81;;;14.09;35.91
75072;BME280;63651;55.728;38.022;2023-02-28T19:12:12;98596.81;;;14.15;36.05
75072;BME280;63651;55.728;38.022;2023-02-28T19:17:13;98596.22;;;14.13;35.86
75072;BME280;63651;55.728;38.022;2023-02-28T19:22:17;98592.16;;;14.15;35.10
75072;BME280;63651;55.728;38.022;2023-02-28T19:27:18;98585.94;;;14.20;35.89
75072;BME280;63651;55.728;38.022;2023-02-28T19:32:20;98584.47;;;14.12;35.60
75072;BME280;63651;55.728;38.022;2023-02-28T19:37:21;98581.25;;;14.15;35.39
75072;BME280;63651;55.728;38.022;2023-02-28T19:42:25;98603.13;;;12.74;31.62
75072;BME280;63651;55.728;38.022;2023-02-28T19:47:32;98611.91;;;9.91;30.80
75072;BME280;63651;55.728;38.022;2023-02-28T19:52:33;98606.97;;;11.21;31.71
75072;BME280;63651;55.728;38.022;2023-02-28T19:57:34;98606.91;;;9.70;28.93
75072;BME280;63651;55.728;38.022;2023-02-28T20:02:36;98601.00;;;9.30;29.67
75072;BME280;63651;55.728;38.022;2023-02-28T20:07:38;98589.31;;;10.16;30.17
75072;BME280;63651;55.728;38.022;2023-02-28T20:12:39;98594.00;;;10.64;30.59
75072;BME280;63651;55.728;38.022;2023-02-28T20:17:40;98587.38;;;10.89;30.80
75072;BME280;63651;55.728;38.022;2023-02-28T20:22:42;98589.53;;;10.99;30.60
75072;BME280;63651;55.728;38.022;2023-02-28T20:27:43;98589.56;;;11.11;30.62
75072;BME280;63651;55.728;38.022;2023-02-28T20:32:44;98582.38;;;11.16;30.93
75072;BME280;63651;55.728;38.022;2023-02-28T20:37:45;98584.38;;;11.21;30.30
75072;BME280;63651;55.728;38.022;2023-02-28T20:42:47;98580.13;;;11.25;30.29
75072;BME280;63651;55.728;38.022;2023-02-28T20:47:49;98569.22;;;11.02;29.23
75072;BME280;63651;55.728;38.022;2023-02-28T20:52:50;98572.19;;;11.12;29.81
75072;BME280;63651;55.728;38.022;2023-02-28T20:57:51;98579.28;;;11.13;30.12
75072;BME280;63651;55.728;38.022;2023-02-28T21:02:53;98587.06;;;11.09;29.58
75072;BME280;63651;55.728;38.022;2023-02-28T21:07:55;98580.47;;;11.17;29.80
75072;BME280;63651;55.728;38.022;2023-02-28T21:12:56;98584.03;;;11.17;29.97
75072;BME280;63651;55.728;38.022;2023-02-28T21:17:57;98573.34;;;11.04;30.10
75072;BME280;63651;55.728;38.022;2023-02-28T21:22:58;98581.00;;;10.96;29.28
75072;BME280;63651;55.728;38.022;2023-02-28T21:28:00;98584.31;;;10.98;29.76
75072;BME280;63651;55.728;38.022;2023-02-28T21:33:01;98599.38;;;11.12;30.83
75072;BME280;63651;55.728;38.022;2023-02-28T21:38:02;98583.06;;;11.12;29.76
75072;BME280;63651;55.728;38.022;2023-02-28T21:43:04;98613.31;;;11.15;30.19
75072;BME280;63651;55.728;38.022;2023-02-28T21:48:05;98607.78;;;11.22;30.49
75072;BME280;63651;55.728;38.022;2023-02-28T21:53:06;98602.13;;;11.23;30.31
75072;BME280;63651;55.728;38.022;2023-02-28T21:58:07;98605.44;;;11.26;29.27
75072;BME280;63651;55.728;38.022;2023-02-28T22:03:08;98584.63;;;11.19;29.42
75072;BME280;63651;55.728;38.022;2023-02-28T22:08:09;98601.28;;;11.23;29.92
75072;BME280;63651;55.728;38.022;2023-02-28T22:13:10;98586.16;;;11.27;30.05
75072;BME280;63651;55.728;38.022;2023-02-28T22:18:11;98607.91;;;11.27;29.48
75072;BME280;63651;55.728;38.022;2023-02-28T22:23:12;98607.56;;;11.23;29.96
75072;BME280;63651;55.728;38.022;2023-02-28T22:28:13;98591.59;;;11.27;29.90
75072;BME280;63651;55.728;38.022;2023-02-28T22:33:14;98597.75;;;11.22;29.33
75072;BME280;63651;55.728;38.022;2023-02-28T22:38:15;98603.19;;;11.22;29.30
75072;BME280;63651;55.728;38.022;2023-02-28T22:43:17;98604.84;;;11.23;29.41
75072;BME280;63651;55.728;38.022;2023-02-28T22:48:18;98606.72;;;11.23;29.35
75072;BME280;63651;55.728;38.022;2023-02-28T22:53:19;98600.31;;;11.17;28.53
75072;BME280;63651;55.728;38.022;2023-02-28T22:58:20;98588.84;;;11.04;29.09
75072;BME280;63651;55.728;38.022;2023-02-28T23:03:24;98584.09;;;10.99;29.32
75072;BME280;63651;55.728;38.022;2023-02-28T23:08:25;98600.75;;;11.03;28.76
75072;BME280;63651;55.728;38.022;2023-02-28T23:13:26;98596.28;;;11.08;28.47
75072;BME280;63651;55.728;38.022;2023-02-28T23:18:27;98591.31;;;11.05;29.36
75072;BME280;63651;55.728;38.022;2023-02-28T23:23:28;98587.78;;;11.05;29.06
75072;BME280;63651;55.728;38.022;2023-02-28T23:28:29;98591.91;;;11.07;29.12
75072;BME280;63651;55.728;38.022;2023-02-28T23:33:31;98589.44;;;11.06;28.86
75072;BME280;63651;55.728;38.022;2023-02-28T23:38:33;98584.81;;;11.06;28.76
75072;BME280;63651;55.728;38.022;2023-02-28T23:43:34;98584.13;;;11.11;28.66
75072;BME280;63651;55.728;38.022;2023-02-28T23:48:36;98582.34;;;11.05;29.23
75072;BME280;63651;55.728;38.022;2023-02-28T23:53:40;98566.38;;;10.97;28.14
75072;BME280;63651;55.728;38.022;2023-02-28T23:58:43;98575.16;;;11.10;28.31
